Time;durP1;ratioP1;P1;durP2;ratioP2;P2;SDS_P1;SDS_P2;PMS_P1;PMS_P2;Temp;Humidity;BMP_temperature;BMP_pressure;BME280_temperature;BME280_humidity;BME280_pressure;Samples;Min_cycle;Max_cycle;Signal;HPM_P1;HPM_P2
2023/11/07 00:00:59;;;;;;;7.63;2.50;;;9.80;86.80;;;;;;9162562;19;21390;-66
2023/11/07 00:04:09;;;;;;;7.10;2.15;;;9.80;86.30;;;;;;9157570;19;20483;-67
2023/11/07 00:07:17;;;;;;;10.85;2.78;;;9.80;86.40;;;;;;9163817;19;20014;-66
2023/11/07 00:10:28;;;;;;;10.68;2.88;;;9.80;86.30;;;;;;9163395;19;20022;-66
2023/11/07 00:13:34;;;;;;;9.80;2.53;;;9.70;86.20;;;;;;9162916;19;20043;-68
2023/11/07 00:16:41;;;;;;;12.77;3.72;;;9.70;86.30;;;;;;9164024;19;20030;-68
2023/11/07 00:19:46;;;;;;;11.88;2.83;;;9.70;86.30;;;;;;9165061;19;20048;-66
2023/11/07 00:22:57;;;;;;;10.63;3.00;;;9.70;86.30;;;;;;9164399;19;20038;-69
2023/11/07 00:26:03;;;;;;;11.30;2.90;;;9.70;86.30;;;;;;9166214;19;20380;-65
2023/11/07 00:29:11;;;;;;;12.18;3.20;;;9.70;86.40;;;;;;9166006;19;20026;-68
2023/11/07 00:32:16;;;;;;;9.25;2.90;;;9.60;86.50;;;;;;9166559;19;20438;-67
2023/11/07 00:35:24;;;;;;;11.70;2.85;;;10.20;86.70;;;;;;9167585;19;20245;-68
2023/11/07 00:38:32;;;;;;;11.18;2.97;;;9.70;86.40;;;;;;9166793;19;20044;-69
2023/11/07 00:41:39;;;;;;;14.68;2.70;;;9.70;86.40;;;;;;9161851;19;20011;-69
2023/11/07 00:44:45;;;;;;;9.63;2.92;;;9.60;86.30;;;;;;9162988;19;20010;-66
2023/11/07 00:47:52;;;;;;;13.95;3.30;;;9.60;86.40;;;;;;9163373;19;20496;-69
2023/11/07 00:50:59;;;;;;;14.00;3.05;;;9.60;86.40;;;;;;9165747;19;20021;-66
2023/11/07 00:54:11;;;;;;;12.57;3.22;;;9.60;86.40;;;;;;9165668;19;20037;-68
2023/11/07 00:57:16;;;;;;;8.45;3.13;;;9.60;86.50;;;;;;9164646;19;20046;-70
2023/11/07 01:00:24;;;;;;;8.20;2.67;;;9.60;86.50;;;;;;9162284;19;20021;-67
2023/11/07 01:03:29;;;;;;;9.30;2.70;;;9.60;86.50;;;;;;9162874;19;20023;-69
2023/11/07 01:06:37;;;;;;;14.35;2.83;;;9.60;86.50;;;;;;9165067;19;20025;-70
2023/11/07 01:09:45;;;;;;;12.13;2.65;;;9.60;86.70;;;;;;9162898;19;20028;-68
2023/11/07 01:12:53;;;;;;;11.45;2.67;;;9.60;87.20;;;;;;9163752;19;20014;-69
2023/11/07 01:15:58;;;;;;;13.30;3.05;;;9.60;86.60;;;;;;9162953;19;20014;-71
2023/11/07 01:19:06;;;;;;;8.70;2.50;;;9.60;86.80;;;;;;9163930;19;20014;-67
2023/11/07 01:22:11;;;;;;;13.40;2.78;;;9.70;87.10;;;;;;9163368;19;20015;-69
2023/11/07 01:25:22;;;;;;;7.78;3.28;;;9.60;86.50;;;;;;9161691;19;20033;-67
2023/11/07 01:28:27;;;;;;;7.93;2.35;;;9.60;86.60;;;;;;9162656;19;20014;-66
2023/11/07 01:31:34;;;;;;;8.02;2.75;;;9.60;86.50;;;;;;9163850;19;20654;-67
2023/11/07 01:34:40;;;;;;;10.27;2.40;;;9.50;86.50;;;;;;9163196;19;20022;-65
2023/11/07 01:37:47;;;;;;;15.38;4.07;;;9.60;86.60;;;;;;9162944;19;20048;-71
2023/11/07 01:40:55;;;;;;;15.93;3.08;;;9.50;86.50;;;;;;9159453;19;20022;-66
2023/11/07 01:44:03;;;;;;;8.60;2.90;;;9.50;86.60;;;;;;9161270;19;20010;-67
2023/11/07 01:47:08;;;;;;;10.48;2.83;;;9.50;86.60;;;;;;9163473;19;20040;-66
2023/11/07 01:50:16;;;;;;;14.98;3.50;;;9.50;86.60;;;;;;9163303;19;20018;-68
2023/11/07 01:53:22;;;;;;;14.48;2.53;;;9.50;86.60;;;;;;9163159;19;20689;-68
2023/11/07 01:56:33;;;;;;;10.57;2.63;;;9.50;86.70;;;;;;9160891;19;20030;-69
2023/11/07 01:59:39;;;;;;;15.73;2.90;;;9.50;86.70;;;;;;9161431;19;20451;-68
2023/11/07 02:02:46;;;;;;;13.18;2.85;;;9.60;86.70;;;;;;9161602;19;20353;-66
2023/11/07 02:05:52;;;;;;;12.93;3.60;;;9.50;86.70;;;;;;9163172;19;20021;-67
2023/11/07 02:08:59;;;;;;;9.07;2.72;;;9.50;86.70;;;;;;9163571;19;20014;-66
2023/11/07 02:12:07;;;;;;;10.43;2.25;;;9.50;86.70;;;;;;9161124;19;20362;-66
2023/11/07 02:15:26;;;;;;;12.65;2.75;;;9.50;86.70;;;;;;9161516;19;20026;-66
2023/11/07 02:18:31;;;;;;;11.38;2.42;;;9.50;86.70;;;;;;9161601;19;20025;-67
2023/11/07 02:21:40;;;;;;;12.10;2.65;;;9.50;86.80;;;;;;9161882;19;20477;-66
2023/11/07 02:24:48;;;;;;;7.65;2.97;;;9.50;86.80;;;;;;9159351;19;20020;-66
2023/11/07 02:27:55;;;;;;;7.03;2.10;;;9.50;86.80;;;;;;9162573;19;20019;-67
2023/11/07 02:31:01;;;;;;;11.25;3.10;;;9.50;86.80;;;;;;9160968;19;20034;-68
2023/11/07 02:34:09;;;;;;;5.88;2.30;;;9.50;86.80;;;;;;9160255;19;20018;-67
2023/11/07 02:37:14;;;;;;;11.35;2.60;;;9.50;86.80;;;;;;9161516;19;20032;-66
2023/11/07 02:40:25;;;;;;;6.20;2.70;;;9.50;86.80;;;;;;9157387;19;20056;-66
2023/11/07 02:43:30;;;;;;;8.00;3.13;;;9.50;86.90;;;;;;9161346;19;20082;-68
2023/11/07 02:46:38;;;;;;;7.88;2.22;;;9.50;87.00;;;;;;9170823;19;20051;-67
2023/11/07 02:49:44;;;;;;;15.20;3.10;;;9.60;87.60;;;;;;9169870;19;20020;-70
2023/11/07 02:52:51;;;;;;;11.63;2.65;;;9.50;86.90;;;;;;9164913;19;20484;-68
2023/11/07 02:55:59;;;;;;;10.05;1.98;;;9.50;86.90;;;;;;9169554;19;20014;-69
2023/11/07 02:59:06;;;;;;;9.25;3.05;;;9.50;87.10;;;;;;9169519;19;20019;-69
2023/11/07 03:02:12;;;;;;;8.80;3.28;;;9.70;87.60;;;;;;9169829;19;20010;-67
2023/11/07 03:05:19;;;;;;;8.88;2.53;;;9.50;86.90;;;;;;9167539;19;20492;-69
2023/11/07 03:08:24;;;;;;;10.50;2.72;;;9.50;87.00;;;;;;9169659;19;20384;-67
2023/11/07 03:11:34;;;;;;;9.13;2.80;;;9.50;87.00;;;;;;9168721;19;20026;-69
2023/11/07 03:14:41;;;;;;;13.88;2.70;;;9.50;87.00;;;;;;9169076;19;20014;-67
2023/11/07 03:17:49;;;;;;;9.52;2.30;;;9.60;87.00;;;;;;9168754;19;20376;-70
2023/11/07 03:20:54;;;;;;;15.68;2.85;;;9.60;87.00;;;;;;9165860;19;20018;-69
2023/11/07 03:24:03;;;;;;;6.30;2.28;;;9.50;86.90;;;;;;9166565;19;20019;-69
2023/11/07 03:27:11;;;;;;;13.43;2.25;;;9.60;87.00;;;;;;9169735;19;20335;-70
2023/11/07 03:30:18;;;;;;;6.95;2.53;;;9.60;87.00;;;;;;9168941;19;20026;-68
2023/11/07 03:33:25;;;;;;;12.63;3.83;;;9.60;87.10;;;;;;9166538;19;20015;-68
2023/11/07 03:36:32;;;;;;;11.98;3.13;;;9.50;86.90;;;;;;9166791;19;20025;-67
2023/11/07 03:39:38;;;;;;;11.00;2.42;;;9.50;86.90;;;;;;9162563;19;20430;-68
2023/11/07 03:42:48;;;;;;;13.00;2.42;;;9.50;87.00;;;;;;9167333;19;20014;-66
2023/11/07 03:45:53;;;;;;;15.85;2.85;;;9.50;87.00;;;;;;9166041;19;20392;-65
2023/11/07 03:49:01;;;;;;;9.63;2.63;;;9.60;87.00;;;;;;9167700;19;20019;-71
2023/11/07 03:52:07;;;;;;;9.43;2.75;;;9.60;87.10;;;;;;9168936;19;20029;-66
2023/11/07 03:55:14;;;;;;;11.95;2.72;;;9.60;87.10;;;;;;9164404;19;20662;-70
2023/11/07 03:58:22;;;;;;;10.20;2.63;;;9.40;86.90;;;;;;9164024;19;20014;-68
2023/11/07 04:01:37;;;;;;;15.77;2.75;;;9.50;87.00;;;;;;9165991;19;20062;-67
2023/11/07 04:04:42;;;;;;;8.68;3.05;;;9.50;87.10;;;;;;9165012;19;20014;-67
2023/11/07 04:07:50;;;;;;;6.90;2.53;;;9.50;87.20;;;;;;9166826;19;20022;-67
2023/11/07 04:10:55;;;;;;;7.57;1.98;;;9.50;87.20;;;;;;9168163;19;20022;-69
2023/11/07 04:14:05;;;;;;;8.05;2.65;;;9.50;87.20;;;;;;9167965;19;20023;-70
2023/11/07 04:17:10;;;;;;;24.15;4.05;;;9.50;88.00;;;;;;9165485;19;20106;-69
2023/11/07 04:20:18;;;;;;;8.05;2.70;;;9.60;89.90;;;;;;9166748;19;20014;-68
2023/11/07 04:23:24;;;;;;;12.68;2.88;;;9.50;87.60;;;;;;9163780;19;20030;-69
2023/11/07 04:26:31;;;;;;;10.60;2.92;;;9.50;87.30;;;;;;9164811;19;20022;-67
2023/11/07 04:29:40;;;;;;;12.45;2.97;;;9.50;87.30;;;;;;9166098;19;20015;-70
2023/11/07 04:32:47;;;;;;;11.27;2.88;;;9.50;87.30;;;;;;9166566;19;20030;-67
2023/11/07 04:35:53;;;;;;;15.10;2.90;;;9.50;87.10;;;;;;9163446;19;20018;-69
2023/11/07 04:39:00;;;;;;;12.55;3.20;;;9.50;87.10;;;;;;9163715;19;20363;-67
2023/11/07 04:42:07;;;;;;;12.10;2.45;;;9.50;87.10;;;;;;9161569;19;20006;-67
2023/11/07 04:45:17;;;;;;;10.88;2.78;;;9.50;87.20;;;;;;9162892;19;20018;-66
2023/11/07 04:48:26;;;;;;;7.15;2.40;;;9.50;87.20;;;;;;9165760;19;20018;-66
2023/11/07 04:51:34;;;;;;;9.50;3.03;;;9.50;87.30;;;;;;9165895;19;20645;-66
2023/11/07 04:54:40;;;;;;;6.85;2.05;;;9.50;87.20;;;;;;9166058;19;20090;-70
2023/11/07 04:57:47;;;;;;;10.13;3.00;;;9.40;87.20;;;;;;9165639;19;20018;-66
2023/11/07 05:00:55;;;;;;;7.40;2.30;;;9.50;87.40;;;;;;9164522;19;20011;-68
2023/11/07 05:04:03;;;;;;;12.02;2.90;;;9.40;87.30;;;;;;9165350;19;20022;-67
2023/11/07 05:07:08;;;;;;;9.88;2.72;;;9.50;87.40;;;;;;9158911;19;20022;-67
2023/11/07 05:10:16;;;;;;;7.78;2.60;;;9.40;87.90;;;;;;9164013;19;20026;-70
2023/11/07 05:13:21;;;;;;;6.82;2.60;;;9.50;88.40;;;;;;9164921;19;20811;-66
2023/11/07 05:16:31;;;;;;;10.48;3.00;;;9.50;88.70;;;;;;9164507;19;20562;-70
2023/11/07 05:19:37;;;;;;;11.48;2.78;;;9.50;89.20;;;;;;9164091;19;20014;-67
2023/11/07 05:22:44;;;;;;;12.70;3.63;;;9.40;87.30;;;;;;9163508;19;20468;-68
2023/11/07 05:25:49;;;;;;;8.90;2.63;;;9.40;87.30;;;;;;9163852;19;20028;-67
2023/11/07 05:28:57;;;;;;;11.18;3.00;;;9.40;87.30;;;;;;9163792;19;20843;-66
2023/11/07 05:32:05;;;;;;;8.15;3.10;;;9.40;87.30;;;;;;9163173;19;20809;-66
2023/11/07 05:35:13;;;;;;;14.02;4.13;;;9.40;87.30;;;;;;9163750;19;20018;-66
2023/11/07 05:38:18;;;;;;;15.93;3.67;;;9.40;87.30;;;;;;9163058;19;20243;-69
2023/11/07 05:41:26;;;;;;;10.77;2.97;;;9.40;87.40;;;;;;9157381;19;20014;-65
2023/11/07 05:44:31;;;;;;;12.70;3.70;;;9.40;87.50;;;;;;9162931;19;20018;-67
2023/11/07 05:47:41;;;;;;;16.33;3.63;;;9.40;88.00;;;;;;9161667;19;20034;-68
2023/11/07 05:50:47;;;;;;;9.93;3.72;;;9.40;87.40;;;;;;9163333;19;20018;-69
2023/11/07 05:53:55;;;;;;;8.27;3.45;;;9.50;87.50;;;;;;9164608;19;20018;-68
2023/11/07 05:57:01;;;;;;;11.93;3.97;;;9.50;87.60;;;;;;9163573;19;20006;-69
2023/11/07 06:00:11;;;;;;;14.07;4.18;;;9.40;87.50;;;;;;9162930;19;20495;-69
2023/11/07 06:03:19;;;;;;;10.73;4.10;;;9.50;87.60;;;;;;9161024;19;20017;-70
2023/11/07 06:06:27;;;;;;;12.75;4.07;;;9.50;87.60;;;;;;9161158;19;20216;-68
2023/11/07 06:09:32;;;;;;;18.35;5.72;;;9.50;87.60;;;;;;9163190;19;20475;-67
2023/11/07 06:12:40;;;;;;;32.50;17.17;;;9.50;87.60;;;;;;9162448;19;20365;-66
2023/11/07 06:15:45;;;;;;;43.38;19.20;;;9.50;87.60;;;;;;9162549;19;20017;-68
2023/11/07 06:18:55;;;;;;;37.55;16.05;;;9.50;87.60;;;;;;9160884;19;20011;-67
2023/11/07 06:22:00;;;;;;;25.48;12.40;;;9.50;87.60;;;;;;9168365;19;20275;-68
2023/11/07 06:25:12;;;;;;;41.15;10.85;;;9.50;87.70;;;;;;9168760;19;20017;-67
2023/11/07 06:28:18;;;;;;;27.58;11.68;;;9.50;87.70;;;;;;9170210;19;20015;-67
2023/11/07 06:31:26;;;;;;;31.45;12.80;;;9.60;87.70;;;;;;9169138;19;20067;-68
2023/11/07 06:34:34;;;;;;;23.02;8.45;;;9.60;87.70;;;;;;9169029;19;20054;-68
2023/11/07 06:37:42;;;;;;;10.73;4.40;;;9.60;87.80;;;;;;9165859;19;20010;-67
2023/11/07 06:40:47;;;;;;;11.68;4.32;;;9.60;87.70;;;;;;9163233;19;20093;-68
2023/11/07 06:43:55;;;;;;;12.23;4.15;;;9.60;87.70;;;;;;9166695;19;20583;-67
2023/11/07 06:47:00;;;;;;;9.00;4.15;;;9.60;87.70;;;;;;9165982;19;20026;-66
2023/11/07 06:50:12;;;;;;;9.15;4.20;;;9.60;87.70;;;;;;9168516;19;20710;-70
2023/11/07 06:53:18;;;;;;;14.90;4.75;;;9.70;87.80;;;;;;9169197;19;20056;-68
2023/11/07 06:56:25;;;;;;;12.98;4.57;;;9.60;87.70;;;;;;9166693;19;20022;-67
2023/11/07 06:59:31;;;;;;;12.27;4.80;;;9.70;87.80;;;;;;9167565;19;20364;-67
2023/11/07 07:02:39;;;;;;;13.57;4.78;;;9.70;87.80;;;;;;9166029;19;20014;-69
2023/11/07 07:05:47;;;;;;;11.80;4.78;;;9.70;87.80;;;;;;9167586;19;20599;-66
2023/11/07 07:08:55;;;;;;;11.98;5.00;;;9.70;87.80;;;;;;9166055;19;20017;-67
2023/11/07 07:12:00;;;;;;;9.63;5.35;;;9.70;87.80;;;;;;9164681;19;20018;-68
2023/11/07 07:15:10;;;;;;;8.93;4.18;;;9.70;87.80;;;;;;9165485;19;20018;-67
2023/11/07 07:18:18;;;;;;;11.05;4.72;;;9.80;87.90;;;;;;9165463;19;20074;-68
2023/11/07 07:21:28;;;;;;;11.98;4.93;;;9.80;87.90;;;;;;9167321;19;20068;-67
2023/11/07 07:24:34;;;;;;;9.02;4.57;;;9.80;87.90;;;;;;9164090;19;20056;-69
2023/11/07 07:27:44;;;;;;;16.35;4.75;;;9.80;87.80;;;;;;9163741;19;20026;-67
2023/11/07 07:30:50;;;;;;;9.98;5.30;;;9.80;87.80;;;;;;9162131;19;20040;-69
2023/11/07 07:33:59;;;;;;;10.63;4.07;;;9.80;87.80;;;;;;9163039;19;20445;-66
2023/11/07 07:37:09;;;;;;;11.93;5.40;;;9.90;87.90;;;;;;9165958;19;20357;-67
2023/11/07 07:40:17;;;;;;;17.58;5.25;;;9.90;87.90;;;;;;9164306;19;20010;-69
2023/11/07 07:43:22;;;;;;;12.10;4.57;;;9.90;87.80;;;;;;9168686;19;20052;-67
2023/11/07 07:46:34;;;;;;;15.50;5.75;;;9.90;87.80;;;;;;9166754;19;20018;-70
2023/11/07 07:49:40;;;;;;;10.57;4.68;;;9.90;87.90;;;;;;9167432;19;20031;-67
2023/11/07 07:52:54;;;;;;;12.68;4.85;;;9.90;87.90;;;;;;9165423;19;20022;-69
2023/11/07 07:56:00;;;;;;;12.73;5.05;;;9.90;87.90;;;;;;9164748;19;20528;-67
2023/11/07 07:59:08;;;;;;;8.60;5.00;;;10.00;87.90;;;;;;9165761;19;20029;-68
2023/11/07 08:02:15;;;;;;;11.07;4.82;;;10.00;87.80;;;;;;9167276;19;20350;-69
2023/11/07 08:05:23;;;;;;;8.73;4.90;;;10.00;87.90;;;;;;9167618;19;20017;-67
2023/11/07 08:08:31;;;;;;;10.20;5.07;;;10.00;87.80;;;;;;9165781;19;20483;-68
2023/11/07 08:11:38;;;;;;;11.77;5.88;;;10.00;87.90;;;;;;9166256;19;20079;-67
2023/11/07 08:14:46;;;;;;;10.77;4.80;;;10.00;87.80;;;;;;9162295;19;20033;-70
2023/11/07 08:17:54;;;;;;;12.13;4.70;;;10.10;87.90;;;;;;9163786;19;20018;-68
2023/11/07 08:20:59;;;;;;;9.73;4.38;;;10.00;87.80;;;;;;9164586;19;20019;-67
2023/11/07 08:24:12;;;;;;;10.30;4.75;;;10.10;87.90;;;;;;9162153;19;20021;-70
2023/11/07 08:27:17;;;;;;;13.65;5.05;;;10.10;87.90;;;;;;9163305;19;20342;-68
2023/11/07 08:30:25;;;;;;;12.60;5.15;;;10.10;87.80;;;;;;9164094;19;20007;-69
2023/11/07 08:33:31;;;;;;;8.18;4.72;;;10.20;87.90;;;;;;9166548;19;20019;-66
2023/11/07 08:36:38;;;;;;;9.32;4.88;;;10.20;87.90;;;;;;9166042;19;20021;-69
2023/11/07 08:39:53;;;;;;;10.02;4.40;;;10.20;87.90;;;;;;9161211;19;20010;-67
2023/11/07 08:43:00;;;;;;;10.40;4.60;;;10.20;87.90;;;;;;9165211;19;20025;-67
2023/11/07 08:46:06;;;;;;;8.27;4.40;;;10.20;87.90;;;;;;9165164;19;20956;-70
2023/11/07 08:49:17;;;;;;;12.88;4.88;;;10.20;87.90;;;;;;9162575;19;20023;-66
2023/11/07 08:52:22;;;;;;;12.20;4.95;;;10.30;88.00;;;;;;9165392;19;20365;-68
2023/11/07 08:55:33;;;;;;;10.95;4.57;;;10.30;87.90;;;;;;9165319;19;20025;-68
2023/11/07 08:58:38;;;;;;;20.70;5.20;;;10.30;88.00;;;;;;9164679;19;21028;-67
2023/11/07 09:01:47;;;;;;;11.43;5.03;;;10.30;87.90;;;;;;9162450;19;20010;-69
2023/11/07 09:04:52;;;;;;;13.30;5.10;;;10.30;88.00;;;;;;9158429;19;20025;-69
2023/11/07 09:08:00;;;;;;;8.30;4.68;;;10.40;88.00;;;;;;9158008;19;20021;-68
2023/11/07 09:11:09;;;;;;;12.82;4.05;;;10.50;89.50;;;;;;9160163;19;20543;-68
2023/11/07 09:14:16;;;;;;;7.22;4.43;;;10.50;91.40;;;;;;9160380;19;20018;-70
2023/11/07 09:17:22;;;;;;;9.65;4.55;;;10.50;88.00;;;;;;9161295;19;20026;-68
2023/11/07 09:20:30;;;;;;;8.73;4.07;;;10.50;88.90;;;;;;9158332;19;20021;-69
2023/11/07 09:23:37;;;;;;;9.55;4.43;;;10.60;88.10;;;;;;9160298;19;20017;-66
2023/11/07 09:26:47;;;;;;;11.93;4.90;;;10.60;88.40;;;;;;9158516;19;20337;-67
2023/11/07 09:29:55;;;;;;;8.20;4.28;;;10.60;88.00;;;;;;9157449;19;20019;-67
2023/11/07 09:33:05;;;;;;;7.60;3.63;;;10.70;88.00;;;;;;9158493;19;20018;-69
2023/11/07 09:36:15;;;;;;;11.13;4.30;;;10.70;87.90;;;;;;9157797;19;20391;-68
2023/11/07 09:39:22;;;;;;;9.10;3.28;;;10.80;87.90;;;;;;9155481;19;20372;-66
2023/11/07 09:42:33;;;;;;;10.73;4.30;;;10.80;87.80;;;;;;9159159;19;20024;-66
2023/11/07 09:45:43;;;;;;;7.85;4.07;;;10.80;87.70;;;;;;9156511;19;20449;-69
2023/11/07 09:48:51;;;;;;;7.43;3.45;;;10.80;87.70;;;;;;9158796;19;20018;-66
2023/11/07 09:52:01;;;;;;;13.43;3.60;;;10.90;87.70;;;;;;9158446;19;20033;-66
2023/11/07 09:55:09;;;;;;;5.25;3.40;;;10.90;87.60;;;;;;9154155;19;20015;-69
2023/11/07 09:58:27;;;;;;;9.50;3.92;;;10.90;87.60;;;;;;9157966;19;20026;-67
2023/11/07 10:01:33;;;;;;;18.75;5.03;;;11.00;87.60;;;;;;9157011;19;20109;-69
2023/11/07 10:04:42;;;;;;;7.05;3.25;;;11.00;87.60;;;;;;9156119;19;20014;-66
2023/11/07 10:07:50;;;;;;;8.35;3.60;;;11.10;87.70;;;;;;9156477;19;20015;-67
2023/11/07 10:11:11;;;;;;;8.45;3.28;;;11.10;87.70;;;;;;9159938;19;20463;-67
2023/11/07 10:14:20;;;;;;;7.85;3.10;;;11.10;87.60;;;;;;9155024;19;20025;-69
2023/11/07 10:17:28;;;;;;;5.38;3.03;;;11.20;87.60;;;;;;9156029;19;20011;-67
2023/11/07 10:20:35;;;;;;;5.95;2.85;;;11.20;87.60;;;;;;9153421;19;21212;-69
2023/11/07 10:23:42;;;;;;;8.15;2.90;;;11.20;87.60;;;;;;9155468;19;20647;-69
2023/11/07 10:26:58;;;;;;;3.22;2.22;;;11.30;87.50;;;;;;9153650;19;20345;-66
2023/11/07 10:30:11;;;;;;;16.80;2.88;;;11.30;87.40;;;;;;9150493;19;20011;-66
2023/11/07 10:33:27;;;;;;;6.35;2.75;;;11.30;87.40;;;;;;9155931;19;20011;-66
2023/11/07 10:36:41;;;;;;;6.00;2.40;;;11.40;87.40;;;;;;9156030;19;20419;-67
2023/11/07 10:39:58;;;;;;;8.48;2.92;;;11.40;87.30;;;;;;9151097;19;20022;-69
2023/11/07 10:43:05;;;;;;;8.27;2.85;;;11.40;87.30;;;;;;9156112;19;20025;-68
2023/11/07 10:46:14;;;;;;;9.88;3.40;;;11.50;87.30;;;;;;9154999;19;20007;-69
2023/11/07 10:49:22;;;;;;;8.48;2.95;;;11.50;87.30;;;;;;9153417;19;20026;-69
2023/11/07 10:52:28;;;;;;;8.93;3.00;;;11.60;87.20;;;;;;9153027;19;20036;-69
2023/11/07 10:55:35;;;;;;;6.05;2.83;;;11.60;87.10;;;;;;9155434;19;20021;-66
2023/11/07 10:58:44;;;;;;;7.38;2.63;;;11.60;87.00;;;;;;9154078;19;20018;-67
2023/11/07 11:01:57;;;;;;;3.65;2.63;;;11.40;86.80;;;;;;9154961;19;20629;-69
2023/11/07 11:05:04;;;;;;;5.93;2.58;;;11.70;86.90;;;;;;9155382;19;20019;-68
2023/11/07 11:08:13;;;;;;;7.32;3.17;;;11.70;87.00;;;;;;9162403;19;20018;-69
2023/11/07 11:11:19;;;;;;;13.43;2.50;;;11.80;87.00;;;;;;9166499;19;20314;-70
2023/11/07 11:14:26;;;;;;;7.20;2.25;;;11.80;87.00;;;;;;9166037;19;20448;-67
2023/11/07 11:17:40;;;;;;;9.18;3.08;;;11.90;87.00;;;;;;9161491;19;20117;-68
2023/11/07 11:20:53;;;;;;;8.68;2.95;;;12.00;86.90;;;;;;9161131;19;20010;-68
2023/11/07 11:24:13;;;;;;;6.15;2.42;;;12.00;86.80;;;;;;9160915;19;20137;-66
2023/11/07 11:27:26;;;;;;;9.85;2.47;;;12.10;86.80;;;;;;9161677;19;20010;-69
2023/11/07 11:30:34;;;;;;;6.47;2.78;;;12.20;86.70;;;;;;9160913;19;20014;-69
2023/11/07 11:33:46;;;;;;;8.35;2.13;;;12.20;86.50;;;;;;9163903;19;20882;-66
2023/11/07 11:36:56;;;;;;;7.45;2.50;;;12.30;86.50;;;;;;9159653;19;20022;-69
2023/11/07 11:40:04;;;;;;;7.18;2.17;;;12.30;86.40;;;;;;9160064;19;20129;-66
2023/11/07 11:43:09;;;;;;;7.55;2.50;;;12.30;86.40;;;;;;9164191;19;20026;-69
2023/11/07 11:46:46;;;;;;;8.68;2.85;;;12.30;86.30;;;;;;9165991;19;20386;-69
2023/11/07 11:50:19;;;;;;;4.68;2.17;;;12.40;86.50;;;;;;9157804;19;20130;-67
2023/11/07 11:53:36;;;;;;;10.32;2.78;;;12.40;86.00;;;;;;9164471;19;20708;-68
2023/11/07 11:57:06;;;;;;;8.52;3.08;;;12.40;85.90;;;;;;9164817;19;20018;-66
2023/11/07 12:00:16;;;;;;;4.30;1.95;;;12.40;85.70;;;;;;9163796;19;20010;-69
2023/11/07 12:03:24;;;;;;;5.30;2.13;;;12.40;85.80;;;;;;9162310;19;20022;-67
2023/11/07 12:06:34;;;;;;;2.80;1.88;;;12.40;85.80;;;;;;9163537;19;20013;-68
2023/11/07 12:09:41;;;;;;;8.65;2.25;;;12.40;85.70;;;;;;9161124;19;20041;-68
2023/11/07 12:12:58;;;;;;;7.45;1.88;;;12.40;85.80;;;;;;9162175;19;20030;-67
2023/11/07 12:16:22;;;;;;;10.27;2.40;;;12.40;85.60;;;;;;9161846;19;20077;-67
2023/11/07 12:19:31;;;;;;;8.10;2.50;;;12.50;86.20;;;;;;9163863;19;20010;-67
2023/11/07 12:22:40;;;;;;;8.30;3.08;;;12.50;85.60;;;;;;9163722;19;21028;-67
2023/11/07 12:25:53;;;;;;;8.10;2.72;;;12.50;85.50;;;;;;9149190;19;20018;-69
2023/11/07 12:28:59;;;;;;;7.78;3.75;;;12.50;85.50;;;;;;9135329;19;20097;-69
2023/11/07 12:32:07;;;;;;;5.13;2.45;;;12.50;85.60;;;;;;9151491;19;20823;-66
2023/11/07 12:35:20;;;;;;;4.93;2.45;;;12.50;86.00;;;;;;9162078;19;20026;-66
2023/11/07 12:38:34;;;;;;;8.43;2.40;;;12.50;85.60;;;;;;9159451;19;20095;-67
2023/11/07 12:41:40;;;;;;;8.73;2.20;;;12.50;85.20;;;;;;9155059;19;20130;-68
2023/11/07 12:44:52;;;;;;;7.20;2.65;;;12.60;85.30;;;;;;9158079;19;20022;-66
2023/11/07 12:47:59;;;;;;;6.22;2.13;;;12.60;85.40;;;;;;9161332;19;20045;-68
2023/11/07 12:51:08;;;;;;;13.70;2.72;;;12.60;85.10;;;;;;9157487;19;20006;-69
2023/11/07 12:54:16;;;;;;;8.88;2.15;;;12.60;85.00;;;;;;9160303;19;20018;-68
2023/11/07 12:57:36;;;;;;;3.92;1.83;;;12.60;84.90;;;;;;9159288;19;20026;-69
2023/11/07 13:00:59;;;;;;;8.00;3.08;;;12.70;84.80;;;;;;9160836;19;20571;-69
2023/11/07 13:04:10;;;;;;;;;;;12.70;84.80;;;;;;9160490;19;20030;-65
2023/11/07 13:07:19;;;;;;;4.03;2.05;;;12.70;85.00;;;;;;9161640;19;20492;-68
2023/11/07 13:10:35;;;;;;;19.98;4.07;;;12.70;85.00;;;;;;9155421;19;20681;-67
2023/11/07 13:13:41;;;;;;;8.85;1.92;;;12.70;85.00;;;;;;9163633;19;20205;-67
2023/11/07 13:16:49;;;;;;;5.72;1.85;;;12.70;84.90;;;;;;9157659;19;20017;-66
2023/11/07 13:19:55;;;;;;;6.05;1.80;;;12.70;84.80;;;;;;9157051;19;20057;-66
2023/11/07 13:23:03;;;;;;;7.78;1.88;;;12.70;84.70;;;;;;9159381;19;20965;-66
2023/11/07 13:26:11;;;;;;;5.65;1.85;;;12.80;84.80;;;;;;9154687;19;20029;-67
2023/11/07 13:29:18;;;;;;;3.55;1.67;;;12.80;84.70;;;;;;9158939;19;20018;-68
2023/11/07 13:32:44;;;;;;;9.15;1.73;;;12.80;84.60;;;;;;9156942;19;20018;-68
2023/11/07 13:35:51;;;;;;;8.43;1.65;;;12.80;84.40;;;;;;9159965;19;20468;-66
2023/11/07 13:38:57;;;;;;;8.88;1.60;;;12.80;84.40;;;;;;9160650;19;20037;-67
2023/11/07 13:42:07;;;;;;;7.20;1.33;;;12.80;84.40;;;;;;9157089;19;20480;-66
2023/11/07 13:45:13;;;;;;;8.57;1.52;;;12.80;84.40;;;;;;9160676;19;20369;-66
2023/11/07 13:48:20;;;;;;;6.95;1.75;;;12.90;84.30;;;;;;9161456;19;20025;-70
2023/11/07 13:51:26;;;;;;;6.05;1.40;;;12.90;84.20;;;;;;9159488;19;20105;-66
2023/11/07 13:54:33;;;;;;;8.15;1.33;;;12.90;84.20;;;;;;9160124;19;20025;-70
2023/11/07 13:57:44;;;;;;;14.85;1.70;;;12.80;84.00;;;;;;9159644;19;20108;-67
2023/11/07 14:00:51;;;;;;;7.75;1.67;;;12.90;84.00;;;;;;9159455;19;20026;-69
2023/11/07 14:03:57;;;;;;;4.57;1.67;;;12.90;84.00;;;;;;9154210;19;20018;-67
2023/11/07 14:07:05;;;;;;;12.23;2.17;;;12.90;84.00;;;;;;9158140;19;20022;-69
2023/11/07 14:10:13;;;;;;;3.97;2.08;;;12.80;83.80;;;;;;9159294;19;20010;-67
2023/11/07 14:13:23;;;;;;;3.70;1.65;;;12.80;83.80;;;;;;9158827;19;20598;-65
2023/11/07 14:16:28;;;;;;;3.65;1.30;;;12.80;83.80;;;;;;9159023;19;20035;-70
2023/11/07 14:19:36;;;;;;;8.00;2.00;;;12.80;83.70;;;;;;9159717;19;20034;-66
2023/11/07 14:22:42;;;;;;;3.08;1.77;;;12.70;83.60;;;;;;9156323;19;20022;-69
2023/11/07 14:25:50;;;;;;;11.00;1.83;;;12.70;83.60;;;;;;9159895;19;20022;-65
2023/11/07 14:28:59;;;;;;;8.40;1.50;;;12.70;83.60;;;;;;9158855;19;20744;-68
2023/11/07 14:32:12;;;;;;;9.07;2.10;;;12.70;84.20;;;;;;9155642;19;20026;-65
2023/11/07 14:35:19;;;;;;;3.65;1.60;;;12.70;83.80;;;;;;9160146;19;20408;-67
2023/11/07 14:38:28;;;;;;;2.35;1.60;;;12.70;83.60;;;;;;9160057;19;20038;-66
2023/11/07 14:41:34;;;;;;;4.20;1.77;;;12.70;83.50;;;;;;9159058;19;20975;-68
2023/11/07 14:44:45;;;;;;;7.13;1.65;;;12.60;83.50;;;;;;9167692;19;20014;-66
2023/11/07 14:47:52;;;;;;;10.70;1.58;;;12.70;84.30;;;;;;9169206;19;20092;-66
2023/11/07 14:51:00;;;;;;;3.90;1.40;;;12.60;83.50;;;;;;9168381;19;20022;-65
2023/11/07 14:54:07;;;;;;;6.32;2.35;;;12.70;84.00;;;;;;9169486;19;20014;-66
2023/11/07 14:57:14;;;;;;;6.35;1.55;;;12.60;83.90;;;;;;9166007;19;20182;-65
2023/11/07 15:00:27;;;;;;;3.33;1.15;;;12.60;83.40;;;;;;9165812;19;20010;-66
2023/11/07 15:03:34;;;;;;;3.97;1.20;;;12.60;83.30;;;;;;9164966;19;20393;-66
2023/11/07 15:06:40;;;;;;;4.40;1.60;;;12.50;83.30;;;;;;9167673;19;20026;-67
2023/11/07 15:09:48;;;;;;;4.85;1.55;;;12.50;83.60;;;;;;9167604;19;20031;-65
2023/11/07 15:12:53;;;;;;;7.03;1.25;;;12.50;83.40;;;;;;9162853;19;20073;-66
2023/11/07 15:16:03;;;;;;;12.13;1.60;;;12.50;83.60;;;;;;9165363;19;21083;-67
2023/11/07 15:19:09;;;;;;;5.78;1.55;;;12.50;84.00;;;;;;9165618;19;20040;-65
2023/11/07 15:22:16;;;;;;;7.13;1.73;;;12.40;84.10;;;;;;9165892;19;20025;-70
2023/11/07 15:25:23;;;;;;;4.70;1.70;;;12.40;83.90;;;;;;9166709;19;20082;-66
2023/11/07 15:28:30;;;;;;;10.40;2.00;;;12.30;83.70;;;;;;9166567;19;20808;-66
2023/11/07 15:31:38;;;;;;;13.48;3.40;;;12.30;83.30;;;;;;9165039;19;20015;-69
2023/11/07 15:34:45;;;;;;;7.20;1.67;;;12.30;83.50;;;;;;9166158;19;20018;-66
2023/11/07 15:37:51;;;;;;;4.13;1.40;;;12.20;83.10;;;;;;9166049;19;20018;-67
2023/11/07 15:40:59;;;;;;;4.43;1.60;;;12.20;83.10;;;;;;9160894;19;20484;-68
2023/11/07 15:44:04;;;;;;;5.45;1.42;;;12.20;83.10;;;;;;9165202;19;20030;-65
2023/11/07 15:47:14;;;;;;;5.25;1.60;;;12.10;83.40;;;;;;9162892;19;20376;-66
2023/11/07 15:50:20;;;;;;;5.70;1.85;;;12.10;83.80;;;;;;9164867;19;20634;-66
2023/11/07 15:53:28;;;;;;;8.02;2.70;;;12.10;83.50;;;;;;9160051;19;20006;-69
2023/11/07 15:56:34;;;;;;;8.13;1.88;;;12.00;83.50;;;;;;9165315;19;20364;-67
2023/11/07 15:59:41;;;;;;;4.90;1.33;;;12.00;83.50;;;;;;9163181;19;20018;-67
2023/11/07 16:02:49;;;;;;;3.03;1.02;;;12.00;84.10;;;;;;9164024;19;20472;-69
2023/11/07 16:05:57;;;;;;;7.05;1.85;;;12.00;84.80;;;;;;9163887;19;20055;-67
2023/11/07 16:09:03;;;;;;;8.73;2.22;;;11.90;83.10;;;;;;9163251;19;20017;-67
2023/11/07 16:12:11;;;;;;;14.88;1.75;;;12.00;83.70;;;;;;9162203;19;20021;-66
2023/11/07 16:15:17;;;;;;;6.63;1.45;;;11.80;82.90;;;;;;9161702;19;20025;-68
2023/11/07 16:18:28;;;;;;;6.95;1.70;;;11.80;85.50;;;;;;9158667;19;20022;-68
2023/11/07 16:21:34;;;;;;;7.70;1.52;;;11.80;83.90;;;;;;9162155;19;20065;-67